createdAt,value
2023-04-03T00:00:50.787Z,80.40
2023-04-03T00:03:53.232Z,81.30
2023-04-03T00:06:55.556Z,81.65
2023-04-03T00:09:57.754Z,81.30
2023-04-03T00:12:59.999Z,82.35
2023-04-03T00:16:04.390Z,81.52
2023-04-03T00:19:06.819Z,80.92
2023-04-03T00:22:08.854Z,81.03
2023-04-03T00:25:12.880Z,80.90
2023-04-03T00:28:15.055Z,80.57
2023-04-03T00:31:17.676Z,80.47
2023-04-03T00:34:21.019Z,80.64
2023-04-03T00:37:24.874Z,80.15
2023-04-03T00:40:28.980Z,80.04
2023-04-03T00:43:31.913Z,80.48
2023-04-03T00:46:34.109Z,79.98
2023-04-03T00:49:38.410Z,79.92
2023-04-03T00:52:41.151Z,79.50
2023-04-03T00:55:44.531Z,80.03
2023-04-03T00:59:05.262Z,80.74
2023-04-03T01:02:08.138Z,80.68
2023-04-03T01:05:11.083Z,81.11
2023-04-03T01:08:13.440Z,80.59
2023-04-03T01:11:19.050Z,79.81
2023-04-03T01:14:23.159Z,79.78
2023-04-03T01:18:01.701Z,80.39
2023-04-03T01:21:37.161Z,79.69
2023-04-03T01:24:42.430Z,78.72
2023-04-03T01:27:46.371Z,79.49
2023-04-03T01:31:09.743Z,79.80
2023-04-03T01:34:12.096Z,79.22
2023-04-03T01:37:14.309Z,78.90
2023-04-03T01:40:16.486Z,78.60
2023-04-03T01:43:19.285Z,78.92
2023-04-03T01:46:23.285Z,79.04
2023-04-03T01:49:25.661Z,79.88
2023-04-03T01:52:27.773Z,78.74
2023-04-03T01:55:29.916Z,79.33
2023-04-03T01:58:33.182Z,78.77
2023-04-03T02:01:36.630Z,78.26
2023-04-03T02:04:42.188Z,78.28
2023-04-03T02:07:44.452Z,79.41
2023-04-03T02:10:49.560Z,78.78
2023-04-03T02:13:51.765Z,77.94
2023-04-03T02:16:54.328Z,78.12
2023-04-03T02:19:58.436Z,78.77
2023-04-03T02:23:01.299Z,77.70
2023-04-03T02:26:08.819Z,77.75
2023-04-03T02:29:10.935Z,78.11
2023-04-03T02:32:13.193Z,76.82
2023-04-03T02:35:15.932Z,77.62
2023-04-03T02:38:18.618Z,78.78
2023-04-03T02:41:22.240Z,77.68
2023-04-03T02:44:26.637Z,77.83
2023-04-03T02:47:29.492Z,77.12
2023-04-03T02:50:31.774Z,76.52
2023-04-03T02:53:34.072Z,77.23
2023-04-03T02:56:42.845Z,78.30
2023-04-03T02:59:45.434Z,77.33
2023-04-03T03:02:50.591Z,76.53
2023-04-03T03:06:03.031Z,76.72
2023-04-03T03:09:06.898Z,76.05
2023-04-03T03:12:09.022Z,77.28
2023-04-03T03:15:11.615Z,76.85
2023-04-03T03:18:13.908Z,76.25
2023-04-03T03:21:16.699Z,77.66
2023-04-03T03:24:18.869Z,76.06
2023-04-03T03:27:21.117Z,76.41
2023-04-03T03:30:23.330Z,77.19
2023-04-03T03:33:26.486Z,76.61
2023-04-03T03:36:28.566Z,76.55
2023-04-03T03:39:30.857Z,75.46
2023-04-03T03:42:33.226Z,75.48
2023-04-03T03:45:35.818Z,75.72
2023-04-03T03:48:38.253Z,75.34
2023-04-03T03:51:41.243Z,75.50
2023-04-03T03:54:43.876Z,75.18
2023-04-03T03:57:46.790Z,76.14
2023-04-03T04:00:49.051Z,75.26
2023-04-03T04:03:51.425Z,74.62
2023-04-03T04:06:58.188Z,74.94
2023-04-03T04:10:00.528Z,74.22
2023-04-03T04:13:02.964Z,74.51
2023-04-03T04:16:05.581Z,74.36
2023-04-03T04:19:09.124Z,73.61
2023-04-03T04:22:13.101Z,72.79
2023-04-03T04:25:15.662Z,74.79
2023-04-03T04:28:18.784Z,74.38
2023-04-03T04:31:23.498Z,74.11
2023-04-03T04:34:26.113Z,73.22
2023-04-03T04:37:28.473Z,74.05
2023-04-03T04:40:33.722Z,83.70
2023-04-03T04:43:36.197Z,86.99
2023-04-03T04:46:38.604Z,89.69
2023-04-03T04:49:42.553Z,89.15
2023-04-03T04:52:46.593Z,87.84
2023-04-03T04:55:49.783Z,89.54
2023-04-03T04:58:52.479Z,88.92
2023-04-03T05:01:58.803Z,89.38
2023-04-03T05:11:00.575Z,89.84
2023-04-03T05:49:06.474Z,64.47
2023-04-03T05:52:33.000Z,66.23
2023-04-03T05:55:35.794Z,66.09
2023-04-03T05:58:40.607Z,66.08
2023-04-03T06:01:42.895Z,67.51
2023-04-03T06:08:55.661Z,67.94
2023-04-03T06:12:00.003Z,64.38
2023-04-03T06:15:04.810Z,65.80
2023-04-03T06:18:08.835Z,65.58
2023-04-03T06:21:11.424Z,65.79
2023-04-03T06:24:17.399Z,66.03
2023-04-03T06:27:20.234Z,64.21
2023-04-03T06:30:23.020Z,65.97
2023-04-03T06:33:25.198Z,67.45
2023-04-03T06:36:29.909Z,65.78
2023-04-03T06:42:36.492Z,65.91
2023-04-03T06:45:46.552Z,64.88
2023-04-03T06:48:50.067Z,66.44
2023-04-03T06:51:53.149Z,66.17
2023-04-03T06:54:58.549Z,64.60
2023-04-03T06:58:01.781Z,65.97
2023-04-03T07:01:04.540Z,67.18
2023-04-03T07:04:07.113Z,66.86
2023-04-03T07:07:09.525Z,67.72
2023-04-03T07:10:12.482Z,66.26
2023-04-03T07:13:15.905Z,65.72
2023-04-03T07:16:18.273Z,65.49
2023-04-03T07:19:22.572Z,65.53
2023-04-03T07:22:25.652Z,66.45
2023-04-03T07:25:27.817Z,67.73
2023-04-03T07:28:33.099Z,66.02
2023-04-03T07:31:35.906Z,66.28
2023-04-03T07:34:39.764Z,66.61
2023-04-03T07:37:42.284Z,67.05
2023-04-03T07:40:49.292Z,66.18
2023-04-03T07:43:51.403Z,67.28
2023-04-03T07:46:53.619Z,66.33
2023-04-03T07:49:55.865Z,66.52
2023-04-03T07:52:59.061Z,67.74
2023-04-03T07:56:03.946Z,68.16
2023-04-03T07:59:06.324Z,68.67
2023-04-03T08:02:11.127Z,67.61
2023-04-03T08:05:14.639Z,67.88
2023-04-03T08:08:21.472Z,68.09
2023-04-03T08:11:24.910Z,69.05
2023-04-03T08:14:28.197Z,68.28
2023-04-03T08:17:31.896Z,69.59
2023-04-03T08:20:35.429Z,69.59
2023-04-03T08:23:38.380Z,70.38
2023-04-03T08:26:43.801Z,69.54
2023-04-03T08:29:48.995Z,68.70
2023-04-03T08:32:52.000Z,69.54
2023-04-03T08:35:54.157Z,69.01
2023-04-03T08:38:59.016Z,68.86
2023-04-03T08:42:10.593Z,68.25
2023-04-03T08:45:39.327Z,68.27
2023-04-03T08:48:44.061Z,68.55
2023-04-03T08:51:59.828Z,68.33
2023-04-03T08:55:05.852Z,68.52
2023-04-03T08:58:17.701Z,69.31
2023-04-03T09:01:22.891Z,68.56
2023-04-03T09:04:28.831Z,68.71
2023-04-03T09:07:43.364Z,67.69
2023-04-03T09:10:46.223Z,70.61
2023-04-03T09:13:56.349Z,70.95
2023-04-03T09:17:03.210Z,71.70
2023-04-03T09:20:21.267Z,73.70
2023-04-03T09:23:51.747Z,79.58
2023-04-03T09:27:00.870Z,93.55
2023-04-03T09:30:04.164Z,91.21
2023-04-03T09:33:08.211Z,98.69
2023-04-03T09:36:10.505Z,99.82
2023-04-03T09:39:17.132Z,100.00
2023-04-03T09:42:33.690Z,96.42
2023-04-03T09:45:38.192Z,95.43
2023-04-03T09:48:55.037Z,94.95
2023-04-03T09:52:28.067Z,96.08
2023-04-03T09:55:31.297Z,93.90
2023-04-03T09:58:49.643Z,91.02
2023-04-03T10:02:26.617Z,90.72
2023-04-03T10:05:42.915Z,88.59
2023-04-03T10:09:05.526Z,88.74
2023-04-03T10:12:10.337Z,86.86
2023-04-03T10:15:28.720Z,84.71
2023-04-03T10:18:48.924Z,84.06
2023-04-03T10:22:01.884Z,82.49
2023-04-03T10:25:22.294Z,82.12
2023-04-03T10:28:42.516Z,81.04
2023-04-03T10:31:53.445Z,79.19
2023-04-03T10:35:34.780Z,80.98
2023-04-03T10:38:58.850Z,79.54
2023-04-03T10:42:28.790Z,80.45
2023-04-03T10:46:03.433Z,79.85
2023-04-03T10:49:30.450Z,78.44
2023-04-03T10:52:55.103Z,78.68
2023-04-03T10:56:28.093Z,76.32
2023-04-03T10:59:52.170Z,73.57
2023-04-03T11:02:58.038Z,71.59
2023-04-03T11:06:08.850Z,70.87
2023-04-03T11:09:26.569Z,70.68
2023-04-03T11:12:51.784Z,68.83
2023-04-03T11:15:55.637Z,68.91
2023-04-03T11:19:01.842Z,67.39
2023-04-03T11:22:25.348Z,67.00
2023-04-03T11:25:31.159Z,68.17
2023-04-03T11:28:33.520Z,68.04
2023-04-03T11:31:56.783Z,68.59
2023-04-03T11:35:02.715Z,67.73
2023-04-03T11:38:09.512Z,68.34
2023-04-03T11:41:14.468Z,68.35
2023-04-03T11:44:39.503Z,70.81
2023-04-03T11:47:55.169Z,68.96
2023-04-03T11:50:58.808Z,70.00
2023-04-03T11:54:46.345Z,71.40
2023-04-03T11:58:00.608Z,73.32
2023-04-03T12:01:03.827Z,71.02
2023-04-03T12:04:15.667Z,70.68
2023-04-03T12:07:21.088Z,70.59
2023-04-03T12:10:31.566Z,70.11
2023-04-03T12:13:36.755Z,70.60
2023-04-03T12:16:39.321Z,69.53
2023-04-03T12:19:50.321Z,69.38
2023-04-03T12:23:27.717Z,69.04
2023-04-03T12:27:08.131Z,69.52
2023-04-03T12:30:33.398Z,69.91
2023-04-03T12:33:45.206Z,70.28
2023-04-03T12:37:08.802Z,68.32
2023-04-03T12:40:37.276Z,69.75
2023-04-03T12:44:00.733Z,69.47
2023-04-03T12:47:24.474Z,69.18
2023-04-03T12:50:31.258Z,69.71
2023-04-03T12:53:36.594Z,67.88
2023-04-03T12:56:39.046Z,69.57
2023-04-03T12:59:42.408Z,68.22
2023-04-03T13:02:47.671Z,69.31
2023-04-03T13:05:49.977Z,70.01
2023-04-03T13:08:58.284Z,69.83
2023-04-03T13:12:14.110Z,69.36
2023-04-03T13:15:24.281Z,69.13
2023-04-03T13:18:34.176Z,67.22
2023-04-03T13:21:37.409Z,68.79
2023-04-03T13:24:41.487Z,70.26
2023-04-03T13:27:45.873Z,69.28
2023-04-03T13:31:00.748Z,69.35
2023-04-03T13:34:19.932Z,69.45
2023-04-03T13:37:32.828Z,68.81
2023-04-03T13:40:48.363Z,71.98
2023-04-03T13:43:53.517Z,70.66
2023-04-03T13:47:01.092Z,68.87
2023-04-03T13:50:30.150Z,68.74
2023-04-03T13:53:35.631Z,69.25
2023-04-03T13:56:40.646Z,70.17
2023-04-03T13:59:47.185Z,71.48
2023-04-03T14:02:49.615Z,74.12
2023-04-03T14:05:54.587Z,72.87
2023-04-03T14:08:56.726Z,75.25
2023-04-03T14:12:20.945Z,73.61
2023-04-03T14:15:32.326Z,73.89
2023-04-03T14:18:34.502Z,74.22
2023-04-03T14:21:36.568Z,74.68
2023-04-03T14:24:40.331Z,79.69
2023-04-03T14:27:45.897Z,83.71
2023-04-03T14:30:51.144Z,89.36
2023-04-03T14:33:53.469Z,95.66
2023-04-03T14:36:55.759Z,100.00
2023-04-03T14:39:59.976Z,100.00
2023-04-03T14:43:02.091Z,100.00
2023-04-03T14:46:04.319Z,99.77
2023-04-03T14:49:35.794Z,94.80
2023-04-03T14:52:38.725Z,94.66
2023-04-03T14:55:46.398Z,95.69
2023-04-03T14:58:51.704Z,97.92
2023-04-03T15:01:54.273Z,95.89
2023-04-03T15:04:58.579Z,94.54
2023-04-03T15:08:01.865Z,94.44
2023-04-03T15:11:04.105Z,92.51
2023-04-03T15:14:06.038Z,92.66
2023-04-03T15:17:16.077Z,91.95
2023-04-03T15:20:20.466Z,90.28
2023-04-03T15:23:27.057Z,89.58
2023-04-03T15:26:29.190Z,89.79
2023-04-03T15:29:32.439Z,89.53
2023-04-03T15:32:35.582Z,90.24
2023-04-03T15:35:38.812Z,89.53
2023-04-03T15:38:41.378Z,89.07
2023-04-03T15:41:46.429Z,88.03
2023-04-03T15:44:48.533Z,88.18
2023-04-03T15:47:51.360Z,87.99
2023-04-03T15:50:53.496Z,87.77
2023-04-03T15:53:55.472Z,85.96
2023-04-03T15:56:58.330Z,85.97
2023-04-03T16:00:00.788Z,85.19
2023-04-03T16:03:07.682Z,84.90
2023-04-03T16:06:09.931Z,89.06
2023-04-03T16:09:12.155Z,88.09
2023-04-03T16:12:14.387Z,91.47
2023-04-03T16:15:16.513Z,92.51
2023-04-03T16:18:19.575Z,94.95
2023-04-03T16:21:23.581Z,98.86
2023-04-03T16:24:26.485Z,100.00
2023-04-03T16:27:30.288Z,100.00
2023-04-03T16:30:32.452Z,100.00
2023-04-03T16:33:35.684Z,100.00
2023-04-03T16:36:38.801Z,100.00
2023-04-03T16:39:42.009Z,100.00
2023-04-03T16:42:44.605Z,100.00
2023-04-03T16:45:46.714Z,85.72
2023-04-03T16:48:48.906Z,77.58
2023-04-03T16:51:53.641Z,71.97
2023-04-03T16:54:56.897Z,68.43
2023-04-03T16:58:00.961Z,65.00
2023-04-03T17:01:17.937Z,64.52
2023-04-03T17:04:20.283Z,66.02
2023-04-03T17:07:25.921Z,66.33
2023-04-03T17:10:28.352Z,64.94
2023-04-03T17:18:15.104Z,64.08
2023-04-03T17:21:20.088Z,63.86
2023-04-03T17:24:31.648Z,72.73
2023-04-03T17:27:39.100Z,80.19
2023-04-03T17:30:42.660Z,80.74
2023-04-03T17:33:49.107Z,81.44
2023-04-03T17:37:00.642Z,84.33
2023-04-03T17:40:04.533Z,85.20
2023-04-03T17:43:07.292Z,85.22
2023-04-03T17:46:10.928Z,88.13
2023-04-03T17:49:16.215Z,90.41
2023-04-03T17:52:18.353Z,89.96
2023-04-03T17:55:20.558Z,90.12
2023-04-03T17:58:22.786Z,88.58
2023-04-03T18:01:29.329Z,89.84
2023-04-03T18:04:36.523Z,89.66
2023-04-03T18:07:41.241Z,88.90
2023-04-03T18:10:47.777Z,87.22
2023-04-03T18:13:51.115Z,89.50
2023-04-03T18:16:53.437Z,88.32
2023-04-03T18:19:56.959Z,88.08
2023-04-03T18:22:59.730Z,87.60
2023-04-03T18:26:03.492Z,85.63
2023-04-03T18:29:09.007Z,84.35
2023-04-03T18:32:16.574Z,81.23
2023-04-03T18:35:18.887Z,81.17
2023-04-03T18:38:20.971Z,79.07
2023-04-03T18:41:27.703Z,78.40
2023-04-03T18:44:33.279Z,77.79
2023-04-03T18:47:37.079Z,77.47
2023-04-03T18:50:39.216Z,78.33
2023-04-03T18:53:42.342Z,78.19
2023-04-03T18:56:45.347Z,76.35
2023-04-03T18:59:47.817Z,75.98
2023-04-03T19:02:50.265Z,75.26
2023-04-03T19:05:52.448Z,75.45
2023-04-03T19:08:54.862Z,75.11
2023-04-03T19:11:56.909Z,73.30
2023-04-03T19:14:59.137Z,74.99
2023-04-03T19:18:01.284Z,72.47
2023-04-03T19:21:04.585Z,72.89
2023-04-03T19:24:08.592Z,72.75
2023-04-03T19:27:11.022Z,71.29
2023-04-03T19:30:14.136Z,72.44
2023-04-03T19:33:16.246Z,72.38
2023-04-03T19:36:18.689Z,71.02
2023-04-03T19:39:21.025Z,71.87
2023-04-03T19:42:23.456Z,72.62
2023-04-03T19:45:27.920Z,72.47
2023-04-03T19:48:30.097Z,71.32
2023-04-03T19:51:32.307Z,73.77
2023-04-03T19:54:34.574Z,74.31
2023-04-03T19:57:36.961Z,73.04
2023-04-03T20:00:42.729Z,71.88
2023-04-03T20:03:45.626Z,72.27
2023-04-03T20:06:47.618Z,74.74
2023-04-03T20:09:49.739Z,75.49
2023-04-03T20:12:52.678Z,73.99
2023-04-03T20:15:54.920Z,74.23
2023-04-03T20:18:58.129Z,74.75
2023-04-03T20:22:01.500Z,74.40
2023-04-03T20:25:08.289Z,75.32
2023-04-03T20:28:12.488Z,73.75
2023-04-03T20:31:14.797Z,74.15
2023-04-03T20:34:18.478Z,73.88
2023-04-03T20:37:23.173Z,75.08
2023-04-03T20:40:26.318Z,72.65
2023-04-03T20:43:28.790Z,73.03
2023-04-03T20:46:48.975Z,73.19
2023-04-03T20:49:53.973Z,74.58
2023-04-03T20:52:57.875Z,75.10
2023-04-03T20:56:01.484Z,73.56
2023-04-03T20:59:05.037Z,73.41
2023-04-03T21:02:07.140Z,72.59
2023-04-03T21:05:11.611Z,71.84
2023-04-03T21:08:51.079Z,73.29
2023-04-03T21:12:31.060Z,71.02
2023-04-03T21:15:49.260Z,70.17
2023-04-03T21:19:13.867Z,71.25
2023-04-03T21:22:16.414Z,71.77
2023-04-03T21:25:18.574Z,70.30
2023-04-03T21:28:24.024Z,69.39
2023-04-03T21:31:57.317Z,70.73
2023-04-03T21:35:02.086Z,70.65
2023-04-03T21:38:04.995Z,70.62
2023-04-03T21:41:07.402Z,69.26
2023-04-03T21:44:09.693Z,70.63
2023-04-03T21:47:12.583Z,71.11
2023-04-03T21:50:15.678Z,70.13
2023-04-03T21:53:19.372Z,71.14
2023-04-03T21:56:23.186Z,70.22
2023-04-03T21:59:25.634Z,70.40
2023-04-03T22:02:28.190Z,69.81
2023-04-03T22:05:32.280Z,69.16
2023-04-03T22:08:35.469Z,69.79
2023-04-03T22:11:38.267Z,68.60
2023-04-03T22:14:40.292Z,68.77
2023-04-03T22:17:42.601Z,69.06
2023-04-03T22:20:44.689Z,69.16
2023-04-03T22:23:46.835Z,69.63
2023-04-03T22:26:49.722Z,69.44
2023-04-03T22:29:51.891Z,69.59
2023-04-03T22:32:53.989Z,69.44
2023-04-03T22:35:56.878Z,69.07
2023-04-03T22:39:00.285Z,69.06
2023-04-03T22:42:02.346Z,69.25
2023-04-03T22:45:04.601Z,68.31
2023-04-03T22:48:08.049Z,69.44
2023-04-03T22:51:10.117Z,68.79
2023-04-03T22:54:12.168Z,68.06
2023-04-03T22:57:14.255Z,67.98
2023-04-03T23:00:16.674Z,68.46
2023-04-03T23:03:19.387Z,68.62
2023-04-03T23:06:21.373Z,68.56
2023-04-03T23:09:23.566Z,68.29
2023-04-03T23:12:26.019Z,67.99
2023-04-03T23:15:27.970Z,68.48
2023-04-03T23:18:31.777Z,67.46
2023-04-03T23:21:34.218Z,68.50
2023-04-03T23:24:37.707Z,67.56
2023-04-03T23:27:39.817Z,66.69
2023-04-03T23:30:43.246Z,66.80
2023-04-03T23:33:45.317Z,66.43
2023-04-03T23:36:47.314Z,67.07
2023-04-03T23:39:49.607Z,66.44
2023-04-03T23:42:51.710Z,66.33
2023-04-03T23:45:54.384Z,67.04
2023-04-03T23:48:56.468Z,67.49
2023-04-03T23:51:58.561Z,66.02
2023-04-03T23:55:00.808Z,66.10
2023-04-03T23:58:02.960Z,66.94
